Humidity-temperature Sensor

Selected Measurement Type: Relative Humidity

 
Relative Humidity [%]     6 entries per hour
Showing data from 5/13/2022 (00:00:00 Z) to 5/6/2022 (00:01:00 Z)
Previous Next [ Day | 3-Days | 7-Days ]
First Last
Prev [ Day | 3-Days | 7-Days ] Next
First Last

Start Time:     :
End Time:     :     
Time (in GMT) :00 :50 :40 :30 :20 :10
Previous Next [ Day | 3-Days | 7-Days ]
First Last
Prev [ Day | 3-Days | 7-Days ] Next
First Last


123 => good data
MM => data is determined as missing
-- => data not received/configured
Back to Top Back to Top
5/13/2022 00:00 to 23:10 98.30 97.33 96.76 95.63 94.15 93.20
5/12/2022 23:00 to 22:10 91.95 91.50 91.29 91.74 92.46 92.71
5/12/2022 22:00 to 21:10 92.81 93.27 93.49 93.37 93.12 93.29
5/12/2022 21:00 to 20:10 93.27 92.50 90.86 87.94 87.86 88.27
5/12/2022 20:00 to 19:10 89.79 90.10 89.57 89.26 89.96 90.33
5/12/2022 19:00 to 18:10 91.83 92.73 93.10 93.16 93.00 92.67
5/12/2022 18:00 to 17:10 92.09 91.64 91.50 92.11 92.34 92.14
5/12/2022 17:00 to 16:10 91.25 90.49 89.48 90.29 90.61 90.24
5/12/2022 16:00 to 15:10 90.22 89.20 88.66 88.91 88.54 87.57
5/12/2022 15:00 to 14:10 86.65 86.57 86.65 86.75 87.08 87.45
5/12/2022 14:00 to 13:10 88.07 88.37 88.35 88.19 88.62 89.07
5/12/2022 13:00 to 12:10 89.40 89.11 88.87 88.91 89.01 88.89
5/12/2022 12:00 to 11:10 88.89 89.09 89.28 89.30 89.94 89.36
5/12/2022 11:00 to 10:10 89.28 88.97 88.93 88.77 88.54 88.72
5/12/2022 10:00 to 9:10 88.89 89.28 89.48 90.33 90.80 91.07
5/12/2022 09:00 to 8:10 91.13 90.16 90.37 89.83 90.06 90.53
5/12/2022 08:00 to 7:10 90.39 90.29 89.81 89.44 88.95 88.99
5/12/2022 07:00 to 6:10 89.46 89.94 90.22 90.43 90.86 92.03
5/12/2022 06:00 to 5:10 92.50 92.30 92.16 92.81 93.27 93.31
5/12/2022 05:00 to 4:10 93.68 94.40 95.32 95.75 96.45 97.40
5/12/2022 04:00 to 3:10 98.30 99.16 99.92 100.25 100.50 100.68
5/12/2022 03:00 to 2:10 100.64 100.62 100.46 100.33 99.94 99.72
5/12/2022 02:00 to 1:10 99.61 99.37 99.45 99.53 99.16 99.00
5/12/2022 01:00 to 0:10 98.55 98.24 98.09 97.54 96.88 96.57
5/12/2022 00:00 to 23:10 96.72 96.94 97.25 97.64 97.77 97.93
5/11/2022 23:00 to 22:10 98.05 98.32 98.36 98.01 97.97 97.62
5/11/2022 22:00 to 21:10 96.98 96.90 96.98 97.29 98.28 98.71
5/11/2022 21:00 to 20:10 99.37 99.53 100.29 100.62 100.52 100.91
5/11/2022 20:00 to 19:10 100.89 100.91 100.91 100.91 100.91 100.91
5/11/2022 19:00 to 18:10 100.89 100.72 100.68 100.40 100.31 100.19
5/11/2022 18:00 to 17:10 99.76 99.59 99.57 99.72 99.68 100.05
5/11/2022 17:00 to 16:10 100.23 100.31 100.50 100.36 100.27 100.48
5/11/2022 16:00 to 15:10 100.50 100.42 100.46 100.23 100.01 99.70
5/11/2022 15:00 to 14:10 99.68 100.25 100.77 100.81 100.91 100.91
5/11/2022 14:00 to 13:10 100.91 100.91 100.91 100.91 100.91 100.91
5/11/2022 13:00 to 12:10 100.91 100.91 100.91 100.85 100.81 100.54
5/11/2022 12:00 to 11:10 99.72 99.31 98.61 98.67 98.61 98.57
5/11/2022 11:00 to 10:10 98.61 98.05 98.11 97.40 96.06 94.23
5/11/2022 10:00 to 9:10 91.56 91.66 92.14 92.69 93.74 95.07
5/11/2022 09:00 to 8:10 96.33 97.33 97.58 97.27 96.45 95.90
5/11/2022 08:00 to 7:10 94.77 93.31 93.02 92.38 91.64 91.68
5/11/2022 07:00 to 6:10 91.81 91.15 90.51 90.59 91.64 92.07
5/11/2022 06:00 to 5:10 91.58 91.27 90.96 90.90 91.03 90.96
5/11/2022 05:00 to 4:10 90.43 90.39 90.49 90.66 90.70 90.53
5/11/2022 04:00 to 3:10 90.33 90.02 89.87 89.75 89.53 89.01
5/11/2022 03:00 to 2:10 88.89 88.85 89.24 89.55 89.87 90.10
5/11/2022 02:00 to 1:10 90.49 91.21 91.40 91.74 92.79 94.03
5/11/2022 01:00 to 0:10 95.22 95.16 94.09 93.22 90.80 88.35
5/11/2022 00:00 to 23:10 88.35 88.35 88.27 88.15 87.86 87.45
5/10/2022 23:00 to 22:10 87.39 87.86 87.53 87.35 87.57 87.33
5/10/2022 22:00 to 21:10 87.29 87.78 87.86 87.76 87.61 87.86
5/10/2022 21:00 to 20:10 87.96 87.39 85.85 85.87 86.07 86.16
5/10/2022 20:00 to 19:10 86.50 86.59 87.20 87.39 87.45 86.28
5/10/2022 19:00 to 18:10 84.98 85.85 87.06 86.18 87.10 87.20
5/10/2022 18:00 to 17:10 87.10 86.77 86.22 85.99 85.44 84.90
5/10/2022 17:00 to 16:10 84.78 84.66 84.98 85.13 84.70 84.74
5/10/2022 16:00 to 15:10 85.33 85.15 84.76 84.45 84.84 84.92
5/10/2022 15:00 to 14:10 85.03 84.94 84.94 85.68 85.99 85.72
5/10/2022 14:00 to 13:10 85.46 85.27 84.45 84.86 85.64 85.35
5/10/2022 13:00 to 12:10 85.17 86.09 85.89 86.07 86.20 85.70
5/10/2022 12:00 to 11:10 85.39 85.48 85.76 86.42 86.67 86.57
5/10/2022 11:00 to 10:10 86.40 86.65 87.22 87.31 87.14 87.74
5/10/2022 10:00 to 9:10 87.82 88.37 88.48 88.21 88.27 88.83
5/10/2022 09:00 to 8:10 88.27 88.00 87.61 87.51 87.41 87.55
5/10/2022 08:00 to 7:10 87.84 87.84 87.20 86.61 86.16 86.18
5/10/2022 07:00 to 6:10 86.55 87.12 87.51 86.57 86.26 87.20
5/10/2022 06:00 to 5:10 86.87 86.05 85.54 85.85 86.16 85.91
5/10/2022 05:00 to 4:10 86.55 86.42 85.87 86.71 87.35 87.20
5/10/2022 04:00 to 3:10 86.92 87.06 86.94 87.29 86.44 85.87
5/10/2022 03:00 to 2:10 84.31 83.83 83.05 83.16 83.73 83.69
5/10/2022 02:00 to 1:10 83.65 83.38 83.73 83.85 83.40 84.12
5/10/2022 01:00 to 0:10 84.16 83.69 83.32 83.01 83.83 83.73
5/10/2022 00:00 to 23:10 83.63 83.59 84.18 83.83 83.24 84.59
5/9/2022 23:00 to 22:10 84.43 84.39 83.57 83.38 83.85 84.59
5/9/2022 22:00 to 21:10 85.00 84.33 84.55 84.33 84.98 85.00
5/9/2022 21:00 to 20:10 84.86 85.15 84.94 84.78 85.00 84.66
5/9/2022 20:00 to 19:10 84.94 84.74 84.51 83.83 83.63 84.18
5/9/2022 19:00 to 18:10 84.78 84.68 84.66 84.78 84.84 84.80
5/9/2022 18:00 to 17:10 84.43 84.41 84.80 85.15 84.63 83.63
5/9/2022 17:00 to 16:10 83.38 83.18 84.29 84.37 84.43 83.92
5/9/2022 16:00 to 15:10 83.18 83.09 82.97 82.42 82.46 82.60
5/9/2022 15:00 to 14:10 83.46 84.49 85.50 87.59 89.01 89.28
5/9/2022 14:00 to 13:10 87.12 84.96 84.66 85.54 86.67 87.10
5/9/2022 13:00 to 12:10 86.94 85.39 83.01 82.64 82.31 81.88
5/9/2022 12:00 to 11:10 82.48 83.73 84.06 83.98 84.39 85.89
5/9/2022 11:00 to 10:10 87.43 88.23 89.01 89.55 87.76 84.63
5/9/2022 10:00 to 9:10 85.03 84.59 85.21 85.27 85.39 85.91
5/9/2022 09:00 to 8:10 85.79 85.68 85.00 85.11 84.63 85.09
5/9/2022 08:00 to 7:10 85.42 84.53 83.73 84.12 84.90 84.57
5/9/2022 07:00 to 6:10 84.20 83.92 84.04 85.09 85.19 85.87
5/9/2022 06:00 to 5:10 86.55 86.13 86.03 86.50 86.30 85.79
5/9/2022 05:00 to 4:10 85.95 85.95 85.83 86.20 86.65 86.46
5/9/2022 04:00 to 3:10 85.97 86.20 86.46 86.50 86.53 86.46
5/9/2022 03:00 to 2:10 85.72 85.83 85.35 84.90 85.09 85.19
5/9/2022 02:00 to 1:10 85.76 85.52 84.80 84.43 83.67 84.08
5/9/2022 01:00 to 0:10 83.59 84.26 84.33 84.41 84.14 84.26
5/9/2022 00:00 to 23:10 84.84 84.51 84.72 84.41 85.29 85.13
5/8/2022 23:00 to 22:10 84.16 84.04 84.72 85.09 84.90 84.35
5/8/2022 22:00 to 21:10 84.20 84.88 85.33 85.09 85.62 85.79
5/8/2022 21:00 to 20:10 85.60 85.35 85.09 84.90 85.21 85.52
5/8/2022 20:00 to 19:10 85.97 86.46 86.75 86.38 86.85 86.94
5/8/2022 19:00 to 18:10 86.03 86.09 85.72 86.13 85.83 86.22
5/8/2022 18:00 to 17:10 86.18 86.38 86.46 86.42 86.28 85.72
5/8/2022 17:00 to 16:10 85.74 85.39 84.86 85.13 85.44 85.17
5/8/2022 16:00 to 15:10 85.97 86.38 86.85 87.41 87.84 87.90
5/8/2022 15:00 to 14:10 88.21 88.29 88.21 88.33 88.81 89.07
5/8/2022 14:00 to 13:10 89.36 88.99 88.35 88.70 89.11 89.61
5/8/2022 13:00 to 12:10 89.94 90.43 90.47 90.53 90.35 90.35
5/8/2022 12:00 to 11:10 90.35 90.74 91.27 91.13 91.11 90.80
5/8/2022 11:00 to 10:10 91.17 91.07 90.68 90.55 90.57 90.84
5/8/2022 10:00 to 9:10 91.37 91.13 90.86 90.66 90.74 90.49
5/8/2022 09:00 to 8:10 90.96 90.98 90.47 90.47 91.00 91.33
5/8/2022 08:00 to 7:10 91.25 91.25 91.58 91.50 91.54 91.66
5/8/2022 07:00 to 6:10 91.87 91.58 91.50 91.19 91.35 91.60
5/8/2022 06:00 to 5:10 91.87 92.18 93.00 95.09 96.94 97.68
5/8/2022 05:00 to 4:10 97.40 96.98 96.10 95.18 94.91 93.82
5/8/2022 04:00 to 3:10 93.35 92.98 91.83 90.45 89.96 89.50
5/8/2022 03:00 to 2:10 89.55 89.59 88.70 89.09 89.22 88.66
5/8/2022 02:00 to 1:10 88.72 89.32 90.33 90.06 90.45 91.99
5/8/2022 01:00 to 0:10 92.92 93.16 93.55 94.64 95.16 93.92
5/8/2022 00:00 to 23:10 91.72 90.33 89.63 89.50 89.71 88.87
5/7/2022 23:00 to 22:10 87.63 88.03 88.13 87.74 87.80 88.83
5/7/2022 22:00 to 21:10 89.92 92.14 94.46 94.79 95.01 95.36
5/7/2022 21:00 to 20:10 95.07 95.73 96.64 96.76 96.78 95.98
5/7/2022 20:00 to 19:10 95.26 94.72 93.64 92.30 90.61 90.37
5/7/2022 19:00 to 18:10 90.45 90.68 91.00 92.50 93.68 95.11
5/7/2022 18:00 to 17:10 96.55 97.17 97.40 97.48 97.70 97.93
5/7/2022 17:00 to 16:10 97.83 97.87 97.97 98.36 98.44 98.73
5/7/2022 16:00 to 15:10 98.90 99.06 99.24 99.33 99.61 99.49
5/7/2022 15:00 to 14:10 99.59 99.61 99.61 99.88 99.76 99.84
5/7/2022 14:00 to 13:10 99.72 99.51 99.20 98.69 98.48 97.60
5/7/2022 13:00 to 12:10 96.20 95.48 95.65 95.87 95.32 94.52
5/7/2022 12:00 to 11:10 94.05 94.83 95.32 95.18 95.40 95.77
5/7/2022 11:00 to 10:10 95.61 95.57 95.34 95.46 95.67 95.92
5/7/2022 10:00 to 9:10 95.65 95.40 95.48 95.73 95.57 96.16
5/7/2022 09:00 to 8:10 96.33 95.98 94.91 93.59 90.59 88.25
5/7/2022 08:00 to 7:10 88.46 88.42 87.68 87.59 87.74 87.20
5/7/2022 07:00 to 6:10 87.61 87.86 88.07 88.15 88.13 87.94
5/7/2022 06:00 to 5:10 87.80 87.96 87.74 87.41 86.77 87.18
5/7/2022 05:00 to 4:10 87.41 87.04 86.65 86.42 86.71 86.55
5/7/2022 04:00 to 3:10 86.90 87.20 87.39 87.41 87.72 87.92
5/7/2022 03:00 to 2:10 87.94 88.27 88.13 88.31 89.32 90.49
5/7/2022 02:00 to 1:10 89.69 89.59 89.92 89.75 90.47 91.48
5/7/2022 01:00 to 0:10 91.91 92.65 93.86 94.58 95.14 95.55
5/7/2022 00:00 to 23:10 95.61 95.94 95.59 95.20 94.79 94.40
5/6/2022 23:00 to 22:10 94.89 96.14 96.53 97.03 96.57 96.10
5/6/2022 22:00 to 21:10 95.81 95.44 94.58 93.06 93.24 93.41
5/6/2022 21:00 to 20:10 95.03 96.16 97.68 98.38 98.51 99.08
5/6/2022 20:00 to 19:10 99.55 99.88 99.86 99.92 99.53 99.39
5/6/2022 19:00 to 18:10 99.20 99.18 99.49 98.96 98.90 98.73
5/6/2022 18:00 to 17:10 98.48 98.03 97.66 97.19 96.72 96.53
5/6/2022 17:00 to 16:10 96.61 96.29 95.87 95.53 94.95 94.17
5/6/2022 16:00 to 15:10 93.45 92.71 91.95 92.07 91.89 91.93
5/6/2022 15:00 to 14:10 92.40 92.75 92.63 92.87 93.29 93.76
5/6/2022 14:00 to 13:10 94.05 94.50 94.91 95.14 94.93 94.83
5/6/2022 13:00 to 12:10 94.64 94.54 94.50 93.70 92.69 91.27
5/6/2022 12:00 to 11:10 92.20 93.35 93.24 92.40 92.07 91.95
5/6/2022 11:00 to 10:10 91.58 91.66 91.85 92.73 93.29 93.45
5/6/2022 10:00 to 9:10 93.72 93.53 93.20 93.00 92.18 91.42
5/6/2022 09:00 to 8:10 90.24 87.74 87.68 87.45 87.10 86.57
5/6/2022 08:00 to 7:10 87.08 86.83 86.24 86.11 86.53 86.71
5/6/2022 07:00 to 6:10 86.92 86.92 86.98 86.26 86.16 85.83
5/6/2022 06:00 to 5:10 85.99 86.50 86.96 86.73 86.65 86.69
5/6/2022 05:00 to 4:10 87.12 86.98 86.90 86.57 86.22 86.61
5/6/2022 04:00 to 3:10 86.30 86.38 86.42 86.05 85.97 86.05
5/6/2022 03:00 to 2:10 86.50 86.26 86.20 86.34 86.59 86.50
5/6/2022 02:00 to 1:10 85.91 86.26 86.38 86.24 86.30 86.34
5/6/2022 01:00 to 0:10 86.55 86.26 86.13 85.72 85.62 85.11